Tracy-Clark, Nevada
Current Conditions -  °F | °C
As of 4:55 AM on Thursday 18 Dec 2014 (Local Time) from KRNO Reporting Station
Scattered Clouds Scattered Clouds  
Wind Chill: 32°   Ceiling: Unl
Heat Index: 32°   Visibility: 10mi
Dew Point: 28°   Wind: 0mph
Humidity: 85%   Direction: NA
Pressure: 30.08"   Gusts: NA
Location:  39.5403°N, 119.672°W
Report Text: KRNO 181255Z 00000KT 10SM SCT050 SCT075 00/M02 A3008 RMK AO2 SLP186 T00001022
Loading
Personal Weather Stations






























Interactive Weather Map New forecast layout! Learn more

10-Day Weather Forecast

Advertisements
Track Severe Weather on mobile